Time Latitude Longitude Accuracy (66% radius in meters) Altitude (meters) Speed (km/hour) Bearing (degrees) Battery (%) GPS flag
11:31:06 57.203958 60.118230 0 0 0 0 1 delete
11:31:05 57.203962 60.118225 0 0 0 0 1 delete
11:31:04 57.203965 60.118220 0 0 0 0 1 delete
11:31:03 57.203973 60.118213 0 0 0 0 1 delete
11:31:02 57.203992 60.118192 0 0 0 0 1 delete
11:31:01 57.204013 60.118163 0 0 0 0 1 delete
11:31:00 57.204038 60.118130 0 0 0 0 1 delete
11:30:59 57.204058 60.118103 0 0 0 0 1 delete
11:30:58 57.204082 60.118073 0 0 0 0 1 delete
11:30:57 57.204102 60.118043 0 0 0 0 1 delete
11:30:56 57.204120 60.118015 0 0 0 0 1 delete
11:30:55 57.204140 60.117980 0 0 0 0 1 delete
11:30:54 57.204158 60.117940 0 0 0 0 1 delete
11:30:53 57.204175 60.117908 0 0 0 0 1 delete
11:30:52 57.204192 60.117868 0 0 0 0 1 delete
11:30:51 57.204210 60.117835 0 0 0 0 1 delete
11:30:50 57.204227 60.117808 0 0 0 0 1 delete
11:30:49 57.204245 60.117775 0 0 0 0 1 delete
11:30:48 57.204263 60.117747 0 0 0 0 1 delete
11:30:47 57.204278 60.117722 0 0 0 0 1 delete
11:30:46 57.204295 60.117697 0 0 0 0 1 delete
11:30:45 57.204313 60.117667 0 0 0 0 1 delete
11:30:44 57.204332 60.117643 0 0 0 0 1 delete
11:30:43 57.204350 60.117622 0 0 0 0 1 delete
11:30:42 57.204370 60.117602 0 0 0 0 1 delete
11:30:41 57.204390 60.117578 0 0 0 0 1 delete
11:30:40 57.204410 60.117557 0 0 0 0 1 delete
11:30:39 57.204432 60.117540 0 0 0 0 1 delete
11:30:38 57.204452 60.117527 0 0 0 0 1 delete
11:30:37 57.204477 60.117510 0 0 0 0 1 delete
11:30:36 57.204500 60.117493 0 0 0 0 1 delete
11:30:35 57.204522 60.117480 0 0 0 0 1 delete
11:30:34 57.204547 60.117470 0 0 0 0 1 delete
11:30:33 57.204568 60.117463 0 0 0 0 1 delete
11:30:32 57.204588 60.117458 0 0 0 0 1 delete
11:30:31 57.204612 60.117453 0 0 0 0 1 delete
11:30:30 57.204633 60.117450 0 0 0 0 1 delete
11:30:29 57.204660 60.117448 0 0 0 0 1 delete
11:30:28 57.204687 60.117453 0 0 0 0 1 delete
11:30:27 57.204712 60.117462 0 0 0 0 1 delete
11:30:26 57.204735 60.117470 0 0 0 0 1 delete
11:30:25 57.204760 60.117478 0 0 0 0 1 delete
11:30:24 57.204782 60.117483 0 0 0 0 1 delete
11:30:23 57.204800 60.117490 0 0 0 0 1 delete
11:30:22 57.204822 60.117500 0 0 0 0 1 delete
11:30:21 57.204842 60.117512 0 0 0 0 1 delete
11:30:20 57.204865 60.117522 0 0 0 0 1 delete
11:30:19 57.204888 60.117528 0 0 0 0 1 delete
11:30:18 57.204907 60.117532 0 0 0 0 1 delete
11:30:17 57.204930 60.117533 0 0 0 0 1 delete